createdAt,value
2023-03-03T00:01:04.604Z,87.80
2023-03-03T00:04:06.144Z,87.80
2023-03-03T00:07:07.713Z,87.80
2023-03-03T00:10:09.757Z,87.00
2023-03-03T00:13:15.534Z,87.10
2023-03-03T00:16:25.104Z,85.50
2023-03-03T00:19:26.714Z,86.00
2023-03-03T00:22:35.312Z,86.90
2023-03-03T00:25:36.823Z,86.10
2023-03-03T00:28:45.700Z,87.40
2023-03-03T00:31:47.368Z,85.90
2023-03-03T00:34:49.384Z,87.50
2023-03-03T00:37:54.308Z,88.00
2023-03-03T00:40:55.784Z,88.00
2023-03-03T00:43:57.897Z,87.70
2023-03-03T00:47:03.097Z,88.30
2023-03-03T00:50:07.736Z,87.90
2023-03-03T00:53:17.298Z,86.10
2023-03-03T00:56:19.665Z,86.50
2023-03-03T00:59:21.278Z,87.80
2023-03-03T01:02:23.239Z,87.80
2023-03-03T01:05:24.786Z,88.70
2023-03-03T01:08:26.503Z,88.00
2023-03-03T01:11:29.122Z,87.60
2023-03-03T01:14:30.661Z,88.00
2023-03-03T01:17:32.394Z,88.00
2023-03-03T01:20:33.920Z,88.50
2023-03-03T01:23:35.450Z,87.00
2023-03-03T01:26:36.955Z,88.90
2023-03-03T01:29:38.404Z,88.70
2023-03-03T01:32:39.876Z,89.00
2023-03-03T01:35:45.450Z,88.50
2023-03-03T01:38:47.372Z,87.30
2023-03-03T01:41:48.821Z,88.40
2023-03-03T01:45:09.583Z,88.30
2023-03-03T01:48:15.793Z,88.50
2023-03-03T01:51:17.270Z,90.30
2023-03-03T01:54:21.910Z,88.50
2023-03-03T01:57:26.222Z,88.40
2023-03-03T02:00:29.202Z,89.70
2023-03-03T02:03:31.036Z,89.80
2023-03-03T02:06:34.726Z,88.90
2023-03-03T02:09:54.969Z,89.00
2023-03-03T02:12:57.549Z,87.10
2023-03-03T02:15:59.845Z,89.60
2023-03-03T02:19:01.489Z,89.20
2023-03-03T02:22:02.970Z,89.20
2023-03-03T02:25:05.471Z,88.70
2023-03-03T02:28:06.990Z,88.50
2023-03-03T02:31:13.066Z,89.00
2023-03-03T02:34:14.725Z,88.80
2023-03-03T02:37:16.918Z,88.80
2023-03-03T02:40:20.577Z,89.30
2023-03-03T02:43:23.388Z,89.10
2023-03-03T02:46:25.465Z,89.30
2023-03-03T02:49:28.369Z,89.20
2023-03-03T02:52:29.874Z,90.30
2023-03-03T02:55:31.344Z,90.00
2023-03-03T02:58:32.819Z,89.70
2023-03-03T03:01:37.021Z,89.10
2023-03-03T03:04:38.669Z,89.70
2023-03-03T03:07:40.208Z,89.50
2023-03-03T03:10:41.697Z,89.20
2023-03-03T03:13:43.445Z,89.30
2023-03-03T03:16:45.052Z,89.20
2023-03-03T03:19:46.662Z,89.50
2023-03-03T03:22:48.211Z,89.40
2023-03-03T03:25:49.863Z,89.90
2023-03-03T03:28:51.762Z,89.00
2023-03-03T03:31:53.304Z,89.50
2023-03-03T03:34:54.860Z,90.40
2023-03-03T03:37:56.363Z,89.90
2023-03-03T03:40:58.219Z,90.00
2023-03-03T03:43:59.719Z,89.90
2023-03-03T03:47:01.291Z,89.80
2023-03-03T03:50:03.053Z,89.30
2023-03-03T03:53:05.342Z,89.90
2023-03-03T03:56:07.050Z,90.10
2023-03-03T03:59:08.605Z,89.90
2023-03-03T04:02:10.268Z,89.90
2023-03-03T04:05:11.798Z,90.30
2023-03-03T04:08:13.389Z,90.10
2023-03-03T04:11:15.050Z,90.20
2023-03-03T04:14:16.625Z,90.30
2023-03-03T04:17:18.802Z,90.30
2023-03-03T04:20:20.367Z,90.10
2023-03-03T04:23:21.898Z,90.30
2023-03-03T04:26:23.408Z,90.00
2023-03-03T04:29:24.864Z,89.90
2023-03-03T04:32:26.477Z,90.00
2023-03-03T04:35:28.419Z,89.60
2023-03-03T04:38:29.981Z,89.70
2023-03-03T04:41:31.513Z,89.50
2023-03-03T04:44:32.989Z,89.80
2023-03-03T04:47:34.640Z,90.10
2023-03-03T04:50:36.180Z,90.00
2023-03-03T04:53:38.292Z,90.10
2023-03-03T04:56:39.805Z,90.20
2023-03-03T04:59:41.366Z,90.10
2023-03-03T05:02:42.870Z,90.10
2023-03-03T05:05:44.328Z,90.00
2023-03-03T05:08:45.999Z,90.10
2023-03-03T05:11:47.589Z,90.20
2023-03-03T05:14:49.066Z,90.10
2023-03-03T05:17:53.406Z,90.20
2023-03-03T05:20:54.899Z,90.10
2023-03-03T05:23:56.401Z,90.00
2023-03-03T05:26:57.910Z,90.10
2023-03-03T05:29:59.430Z,90.10
2023-03-03T05:33:01.096Z,90.00
2023-03-03T05:36:02.602Z,90.10
2023-03-03T05:39:04.157Z,90.10
2023-03-03T05:42:05.796Z,90.20
2023-03-03T05:45:07.682Z,90.20
2023-03-03T05:48:10.164Z,90.20
2023-03-03T05:51:11.658Z,90.20
2023-03-03T05:54:13.345Z,90.30
2023-03-03T05:57:15.299Z,90.30
2023-03-03T06:00:17.113Z,90.10
2023-03-03T06:03:18.811Z,90.00
2023-03-03T06:06:20.450Z,90.10
2023-03-03T06:09:22.444Z,90.50
2023-03-03T17:36:20.307Z,90.70
2023-03-03T17:39:49.470Z,91.90
2023-03-03T17:43:13.578Z,91.60
2023-03-03T17:46:23.449Z,92.30
2023-03-03T17:49:24.950Z,92.10
2023-03-03T17:52:52.035Z,92.00
2023-03-03T17:56:18.810Z,91.30
2023-03-03T17:59:39.558Z,91.30
2023-03-03T18:02:58.185Z,91.40
2023-03-03T18:06:18.391Z,91.40
2023-03-03T18:10:17.196Z,91.30
2023-03-03T18:13:44.999Z,91.50
2023-03-03T18:17:10.505Z,91.40
2023-03-03T18:20:12.012Z,91.30
2023-03-03T18:23:41.739Z,91.70
2023-03-03T18:26:43.771Z,91.10
2023-03-03T18:30:05.291Z,91.60
2023-03-03T18:33:10.232Z,91.60
2023-03-03T18:36:36.420Z,91.50
2023-03-03T18:39:49.380Z,91.70
2023-03-03T18:42:53.774Z,91.70
2023-03-03T18:45:56.127Z,91.40
2023-03-03T18:49:07.617Z,91.40
2023-03-03T18:52:27.062Z,90.70
2023-03-03T18:55:28.693Z,91.50
2023-03-03T18:58:38.784Z,91.30
2023-03-03T19:01:44.711Z,91.60
2023-03-03T19:05:04.717Z,91.40
2023-03-03T19:08:25.944Z,90.70
2023-03-03T19:11:40.469Z,91.60
2023-03-03T19:14:46.254Z,90.70
2023-03-03T19:17:49.793Z,91.50
2023-03-03T19:20:57.079Z,91.50
2023-03-03T19:24:03.189Z,90.70
2023-03-03T19:27:32.607Z,90.60
2023-03-03T19:30:48.228Z,91.60
2023-03-03T19:34:00.717Z,90.70
2023-03-03T19:37:05.313Z,90.80
2023-03-03T19:40:24.997Z,91.60
2023-03-03T19:47:38.106Z,90.90
2023-03-03T19:51:02.299Z,91.40
2023-03-03T19:54:40.137Z,90.80
2023-03-03T19:58:35.354Z,90.80
2023-03-03T20:02:28.551Z,91.60
2023-03-03T20:06:05.099Z,91.10
2023-03-03T20:09:50.363Z,92.30
2023-03-03T20:13:12.468Z,91.60
2023-03-03T20:16:42.069Z,91.70
2023-03-03T20:20:05.731Z,92.10
2023-03-03T20:24:00.844Z,90.80
2023-03-03T20:27:09.522Z,91.10
2023-03-03T20:30:38.417Z,91.20
2023-03-03T20:37:54.371Z,90.50
2023-03-03T20:41:17.578Z,91.90
2023-03-03T20:44:59.567Z,90.50
2023-03-03T20:48:16.180Z,90.50
2023-03-03T20:51:29.555Z,91.90
2023-03-03T20:54:48.447Z,90.60
2023-03-03T20:58:07.367Z,90.60
2023-03-03T21:01:17.234Z,91.50
2023-03-03T21:04:22.569Z,90.50
2023-03-03T21:07:26.129Z,91.40
2023-03-03T21:10:36.136Z,91.40
2023-03-03T21:13:44.086Z,90.40
2023-03-03T21:16:45.928Z,90.40
2023-03-03T21:19:47.535Z,91.20
2023-03-03T21:22:49.194Z,91.10
2023-03-03T21:25:55.793Z,91.10
2023-03-03T21:29:03.506Z,90.20
2023-03-03T21:32:09.815Z,91.10
2023-03-03T21:35:16.573Z,91.10
2023-03-03T21:38:34.535Z,91.60
2023-03-03T21:41:56.809Z,91.10
2023-03-03T21:45:08.907Z,89.10
2023-03-03T21:48:10.461Z,90.90
2023-03-03T21:51:14.034Z,90.80
2023-03-03T21:54:15.639Z,90.90
2023-03-03T21:57:17.241Z,90.90
2023-03-03T22:00:19.374Z,91.00
2023-03-03T22:03:20.895Z,90.80
2023-03-03T22:06:22.675Z,90.90
2023-03-03T22:09:24.514Z,91.00
2023-03-03T22:12:26.113Z,91.00
2023-03-03T22:15:30.381Z,91.00
2023-03-03T22:18:31.982Z,91.10
2023-03-03T22:21:33.512Z,91.00
2023-03-03T22:24:35.090Z,91.00
2023-03-03T22:27:36.683Z,90.90
2023-03-03T22:30:38.227Z,90.80
2023-03-03T22:33:40.028Z,90.90
2023-03-03T22:36:41.711Z,90.80
2023-03-03T22:39:43.289Z,90.90
2023-03-03T22:42:44.819Z,90.80
2023-03-03T22:45:46.417Z,90.80
2023-03-03T22:48:47.952Z,90.80
2023-03-03T22:51:49.499Z,90.80
2023-03-03T22:54:51.088Z,90.80
2023-03-03T22:57:52.649Z,90.80
2023-03-03T23:00:54.644Z,90.90
2023-03-03T23:03:56.182Z,90.90
2023-03-03T23:06:58.796Z,90.90
2023-03-03T23:10:00.425Z,90.80
2023-03-03T23:13:02.473Z,90.70
2023-03-03T23:16:04.402Z,90.80
2023-03-03T23:19:05.970Z,90.60
2023-03-03T23:22:07.538Z,90.80
2023-03-03T23:25:09.903Z,90.80
2023-03-03T23:28:12.188Z,90.80
2023-03-03T23:31:13.846Z,90.90
2023-03-03T23:34:15.475Z,90.90
2023-03-03T23:37:17.389Z,91.20
2023-03-03T23:40:18.997Z,90.90
2023-03-03T23:43:20.546Z,91.00
2023-03-03T23:46:22.161Z,90.80
2023-03-03T23:49:23.844Z,90.90
2023-03-03T23:52:25.473Z,90.90
2023-03-03T23:55:27.098Z,90.90
2023-03-03T23:58:28.653Z,91.10
